sensor_id;sensor_type;location;lat;lon;timestamp;temperature;humidity
31819;DHT22;18384;48.860;9.188;2023-04-28T00:02:19;13.30;93.50
31819;DHT22;18384;48.860;9.188;2023-04-28T00:04:45;13.30;93.50
31819;DHT22;18384;48.860;9.188;2023-04-28T00:07:11;13.30;93.60
31819;DHT22;18384;48.860;9.188;2023-04-28T00:09:37;13.30;93.50
31819;DHT22;18384;48.860;9.188;2023-04-28T00:12:04;13.30;93.60
31819;DHT22;18384;48.860;9.188;2023-04-28T00:14:30;13.30;93.40
31819;DHT22;18384;48.860;9.188;2023-04-28T00:16:56;13.30;93.40
31819;DHT22;18384;48.860;9.188;2023-04-28T00:19:23;13.30;93.60
31819;DHT22;18384;48.860;9.188;2023-04-28T00:21:50;13.40;93.40
31819;DHT22;18384;48.860;9.188;2023-04-28T00:24:16;13.30;93.40
31819;DHT22;18384;48.860;9.188;2023-04-28T00:26:42;13.30;93.50
31819;DHT22;18384;48.860;9.188;2023-04-28T00:29:08;13.30;93.50
31819;DHT22;18384;48.860;9.188;2023-04-28T00:31:34;13.40;93.50
31819;DHT22;18384;48.860;9.188;2023-04-28T00:34:00;13.30;93.30
31819;DHT22;18384;48.860;9.188;2023-04-28T00:36:26;13.40;93.40
31819;DHT22;18384;48.860;9.188;2023-04-28T00:38:57;13.40;93.40
31819;DHT22;18384;48.860;9.188;2023-04-28T00:41:23;13.30;93.80
31819;DHT22;18384;48.860;9.188;2023-04-28T00:43:49;13.30;93.60
31819;DHT22;18384;48.860;9.188;2023-04-28T00:46:25;13.40;93.70
31819;DHT22;18384;48.860;9.188;2023-04-28T00:48:54;13.40;93.70
31819;DHT22;18384;48.860;9.188;2023-04-28T00:51:20;13.40;93.90
31819;DHT22;18384;48.860;9.188;2023-04-28T00:53:47;13.40;93.90
31819;DHT22;18384;48.860;9.188;2023-04-28T00:56:13;13.40;93.90
31819;DHT22;18384;48.860;9.188;2023-04-28T00:58:40;13.40;93.80
31819;DHT22;18384;48.860;9.188;2023-04-28T01:01:08;13.40;93.90
31819;DHT22;18384;48.860;9.188;2023-04-28T01:03:36;13.40;93.90
31819;DHT22;18384;48.860;9.188;2023-04-28T01:06:05;13.40;93.70
31819;DHT22;18384;48.860;9.188;2023-04-28T01:08:33;13.40;93.70
31819;DHT22;18384;48.860;9.188;2023-04-28T01:11:00;13.40;93.60
31819;DHT22;18384;48.860;9.188;2023-04-28T01:13:27;13.40;93.60
31819;DHT22;18384;48.860;9.188;2023-04-28T01:15:54;13.40;93.60
31819;DHT22;18384;48.860;9.188;2023-04-28T01:18:21;13.40;93.80
31819;DHT22;18384;48.860;9.188;2023-04-28T01:20:47;13.40;93.60
31819;DHT22;18384;48.860;9.188;2023-04-28T01:23:14;13.30;94.00
31819;DHT22;18384;48.860;9.188;2023-04-28T01:25:42;13.40;93.70
31819;DHT22;18384;48.860;9.188;2023-04-28T01:28:09;13.30;93.80
31819;DHT22;18384;48.860;9.188;2023-04-28T01:30:36;13.30;93.80
31819;DHT22;18384;48.860;9.188;2023-04-28T01:33:02;13.30;93.70
31819;DHT22;18384;48.860;9.188;2023-04-28T01:35:29;13.40;93.80
31819;DHT22;18384;48.860;9.188;2023-04-28T01:37:55;13.40;93.50
31819;DHT22;18384;48.860;9.188;2023-04-28T01:40:21;13.40;93.40
31819;DHT22;18384;48.860;9.188;2023-04-28T01:42:47;13.40;93.40
31819;DHT22;18384;48.860;9.188;2023-04-28T01:45:13;13.40;93.40
31819;DHT22;18384;48.860;9.188;2023-04-28T01:47:40;13.40;93.40
31819;DHT22;18384;48.860;9.188;2023-04-28T01:50:06;13.40;93.50
31819;DHT22;18384;48.860;9.188;2023-04-28T01:52:32;13.40;93.70
31819;DHT22;18384;48.860;9.188;2023-04-28T01:54:58;13.40;93.80
31819;DHT22;18384;48.860;9.188;2023-04-28T01:57:24;13.40;94.00
31819;DHT22;18384;48.860;9.188;2023-04-28T01:59:52;13.40;94.30
31819;DHT22;18384;48.860;9.188;2023-04-28T02:02:19;13.40;94.20
31819;DHT22;18384;48.860;9.188;2023-04-28T02:04:45;13.40;94.30
31819;DHT22;18384;48.860;9.188;2023-04-28T02:07:11;13.40;94.50
31819;DHT22;18384;48.860;9.188;2023-04-28T02:09:37;13.50;94.20
31819;DHT22;18384;48.860;9.188;2023-04-28T02:12:03;13.50;94.30
31819;DHT22;18384;48.860;9.188;2023-04-28T02:14:29;13.40;94.40
31819;DHT22;18384;48.860;9.188;2023-04-28T02:16:58;13.50;94.20
31819;DHT22;18384;48.860;9.188;2023-04-28T02:19:24;13.40;94.10
31819;DHT22;18384;48.860;9.188;2023-04-28T02:21:50;13.50;94.10
31819;DHT22;18384;48.860;9.188;2023-04-28T02:24:17;13.50;93.80
31819;DHT22;18384;48.860;9.188;2023-04-28T02:26:43;13.50;93.80
31819;DHT22;18384;48.860;9.188;2023-04-28T02:29:09;13.40;93.80
31819;DHT22;18384;48.860;9.188;2023-04-28T02:31:35;13.40;93.80
31819;DHT22;18384;48.860;9.188;2023-04-28T02:34:01;13.40;93.80
31819;DHT22;18384;48.860;9.188;2023-04-28T02:36:27;13.40;94.00
31819;DHT22;18384;48.860;9.188;2023-04-28T02:38:53;13.50;94.10
31819;DHT22;18384;48.860;9.188;2023-04-28T02:41:19;13.40;93.90
31819;DHT22;18384;48.860;9.188;2023-04-28T02:43:45;13.40;93.80
31819;DHT22;18384;48.860;9.188;2023-04-28T02:46:12;13.40;93.90
31819;DHT22;18384;48.860;9.188;2023-04-28T02:48:38;13.40;94.20
31819;DHT22;18384;48.860;9.188;2023-04-28T02:51:05;13.40;94.20
31819;DHT22;18384;48.860;9.188;2023-04-28T02:53:31;13.50;94.20
31819;DHT22;18384;48.860;9.188;2023-04-28T02:55:57;13.40;94.40
31819;DHT22;18384;48.860;9.188;2023-04-28T02:58:23;13.50;94.10
31819;DHT22;18384;48.860;9.188;2023-04-28T03:00:50;13.50;94.10
31819;DHT22;18384;48.860;9.188;2023-04-28T03:03:16;13.50;94.20
31819;DHT22;18384;48.860;9.188;2023-04-28T03:05:42;13.40;94.30
31819;DHT22;18384;48.860;9.188;2023-04-28T03:08:08;13.40;94.60
31819;DHT22;18384;48.860;9.188;2023-04-28T03:10:34;13.40;94.70
31819;DHT22;18384;48.860;9.188;2023-04-28T03:13:00;13.40;95.00
31819;DHT22;18384;48.860;9.188;2023-04-28T03:15:26;13.40;95.20
31819;DHT22;18384;48.860;9.188;2023-04-28T03:17:52;13.30;95.80
31819;DHT22;18384;48.860;9.188;2023-04-28T03:20:18;13.30;96.50
31819;DHT22;18384;48.860;9.188;2023-04-28T03:22:44;13.30;96.90
31819;DHT22;18384;48.860;9.188;2023-04-28T03:25:11;13.30;97.60
31819;DHT22;18384;48.860;9.188;2023-04-28T03:27:37;13.30;98.00
31819;DHT22;18384;48.860;9.188;2023-04-28T03:30:03;13.30;97.30
31819;DHT22;18384;48.860;9.188;2023-04-28T03:32:30;13.30;97.00
31819;DHT22;18384;48.860;9.188;2023-04-28T03:34:56;13.30;97.00
31819;DHT22;18384;48.860;9.188;2023-04-28T03:37:22;13.30;97.30
31819;DHT22;18384;48.860;9.188;2023-04-28T03:39:48;13.30;98.00
31819;DHT22;18384;48.860;9.188;2023-04-28T03:42:15;13.30;98.60
31819;DHT22;18384;48.860;9.188;2023-04-28T03:44:41;13.30;98.50
31819;DHT22;18384;48.860;9.188;2023-04-28T03:47:07;13.30;98.90
31819;DHT22;18384;48.860;9.188;2023-04-28T03:49:33;13.30;98.90
31819;DHT22;18384;48.860;9.188;2023-04-28T03:51:59;13.30;98.80
31819;DHT22;18384;48.860;9.188;2023-04-28T03:54:26;13.30;98.50
31819;DHT22;18384;48.860;9.188;2023-04-28T03:56:52;13.30;98.20
31819;DHT22;18384;48.860;9.188;2023-04-28T03:59:18;12.80;98.10
31819;DHT22;18384;48.860;9.188;2023-04-28T04:01:44;13.20;97.90
31819;DHT22;18384;48.860;9.188;2023-04-28T04:04:10;13.20;98.20
31819;DHT22;18384;48.860;9.188;2023-04-28T04:06:36;13.30;98.20
31819;DHT22;18384;48.860;9.188;2023-04-28T04:09:03;13.20;98.10
31819;DHT22;18384;48.860;9.188;2023-04-28T04:11:29;13.20;97.90
31819;DHT22;18384;48.860;9.188;2023-04-28T04:13:55;13.20;98.10
31819;DHT22;18384;48.860;9.188;2023-04-28T04:16:22;13.20;98.00
31819;DHT22;18384;48.860;9.188;2023-04-28T04:18:48;13.20;98.10
31819;DHT22;18384;48.860;9.188;2023-04-28T04:21:14;13.20;98.30
31819;DHT22;18384;48.860;9.188;2023-04-28T04:23:40;13.20;98.10
31819;DHT22;18384;48.860;9.188;2023-04-28T04:26:06;13.20;98.50
31819;DHT22;18384;48.860;9.188;2023-04-28T04:28:32;13.20;98.10
31819;DHT22;18384;48.860;9.188;2023-04-28T04:30:58;13.20;98.30
31819;DHT22;18384;48.860;9.188;2023-04-28T04:33:24;13.20;98.10
31819;DHT22;18384;48.860;9.188;2023-04-28T04:35:50;13.20;98.20
31819;DHT22;18384;48.860;9.188;2023-04-28T04:38:17;13.20;98.10
31819;DHT22;18384;48.860;9.188;2023-04-28T04:40:43;13.20;98.30
31819;DHT22;18384;48.860;9.188;2023-04-28T04:43:09;13.20;98.70
31819;DHT22;18384;48.860;9.188;2023-04-28T04:45:36;13.30;99.10
31819;DHT22;18384;48.860;9.188;2023-04-28T04:48:02;13.20;98.90
31819;DHT22;18384;48.860;9.188;2023-04-28T04:50:28;13.30;98.90
31819;DHT22;18384;48.860;9.188;2023-04-28T04:52:54;13.30;98.70
31819;DHT22;18384;48.860;9.188;2023-04-28T04:55:22;13.30;98.60
31819;DHT22;18384;48.860;9.188;2023-04-28T04:57:48;13.30;98.50
31819;DHT22;18384;48.860;9.188;2023-04-28T05:00:15;13.30;98.90
31819;DHT22;18384;48.860;9.188;2023-04-28T05:02:41;13.30;98.70
31819;DHT22;18384;48.860;9.188;2023-04-28T05:05:08;13.30;98.90
31819;DHT22;18384;48.860;9.188;2023-04-28T05:07:34;13.30;99.10
31819;DHT22;18384;48.860;9.188;2023-04-28T05:10:01;13.30;99.10
31819;DHT22;18384;48.860;9.188;2023-04-28T05:12:27;13.40;99.20
31819;DHT22;18384;48.860;9.188;2023-04-28T05:14:53;13.30;99.40
31819;DHT22;18384;48.860;9.188;2023-04-28T05:17:19;13.40;99.60
31819;DHT22;18384;48.860;9.188;2023-04-28T05:19:46;13.40;99.80
31819;DHT22;18384;48.860;9.188;2023-04-28T05:22:12;13.40;99.70
31819;DHT22;18384;48.860;9.188;2023-04-28T05:24:38;13.40;99.80
31819;DHT22;18384;48.860;9.188;2023-04-28T05:27:04;13.40;99.50
31819;DHT22;18384;48.860;9.188;2023-04-28T05:29:30;13.40;99.90
31819;DHT22;18384;48.860;9.188;2023-04-28T05:31:56;13.40;99.80
31819;DHT22;18384;48.860;9.188;2023-04-28T05:34:22;13.40;99.60
31819;DHT22;18384;48.860;9.188;2023-04-28T05:36:49;13.40;99.60
31819;DHT22;18384;48.860;9.188;2023-04-28T05:39:16;13.40;99.70
31819;DHT22;18384;48.860;9.188;2023-04-28T05:41:42;13.40;99.70
31819;DHT22;18384;48.860;9.188;2023-04-28T05:44:08;13.40;99.90
31819;DHT22;18384;48.860;9.188;2023-04-28T05:46:35;13.40;99.90
31819;DHT22;18384;48.860;9.188;2023-04-28T05:49:01;13.40;99.90
31819;DHT22;18384;48.860;9.188;2023-04-28T05:51:27;13.50;99.90
31819;DHT22;18384;48.860;9.188;2023-04-28T05:53:53;13.50;99.90
31819;DHT22;18384;48.860;9.188;2023-04-28T05:56:20;13.50;99.90
31819;DHT22;18384;48.860;9.188;2023-04-28T05:58:46;13.50;99.90
31819;DHT22;18384;48.860;9.188;2023-04-28T06:01:14;13.60;99.90
31819;DHT22;18384;48.860;9.188;2023-04-28T06:03:41;13.60;99.90
31819;DHT22;18384;48.860;9.188;2023-04-28T06:06:11;13.60;99.90
31819;DHT22;18384;48.860;9.188;2023-04-28T06:08:37;13.60;99.90
31819;DHT22;18384;48.860;9.188;2023-04-28T06:11:04;13.60;99.90
31819;DHT22;18384;48.860;9.188;2023-04-28T06:13:31;13.60;99.90
31819;DHT22;18384;48.860;9.188;2023-04-28T06:15:57;13.60;99.90
31819;DHT22;18384;48.860;9.188;2023-04-28T06:18:23;13.60;99.90
31819;DHT22;18384;48.860;9.188;2023-04-28T06:20:50;13.60;99.90
31819;DHT22;18384;48.860;9.188;2023-04-28T06:23:16;13.60;99.90
31819;DHT22;18384;48.860;9.188;2023-04-28T06:25:42;13.60;99.90
31819;DHT22;18384;48.860;9.188;2023-04-28T06:28:08;13.60;99.90
31819;DHT22;18384;48.860;9.188;2023-04-28T06:30:34;13.60;99.90
31819;DHT22;18384;48.860;9.188;2023-04-28T06:33:00;13.60;99.90
31819;DHT22;18384;48.860;9.188;2023-04-28T06:35:27;13.60;99.90
31819;DHT22;18384;48.860;9.188;2023-04-28T06:37:53;13.70;99.90
31819;DHT22;18384;48.860;9.188;2023-04-28T06:40:19;13.70;99.90
31819;DHT22;18384;48.860;9.188;2023-04-28T06:42:45;13.70;99.90
31819;DHT22;18384;48.860;9.188;2023-04-28T06:45:11;13.70;99.90
31819;DHT22;18384;48.860;9.188;2023-04-28T06:47:37;13.60;99.90
31819;DHT22;18384;48.860;9.188;2023-04-28T06:50:05;13.70;99.90
31819;DHT22;18384;48.860;9.188;2023-04-28T06:52:32;13.70;99.90
31819;DHT22;18384;48.860;9.188;2023-04-28T06:54:58;13.80;99.90
31819;DHT22;18384;48.860;9.188;2023-04-28T06:57:24;13.80;99.90
31819;DHT22;18384;48.860;9.188;2023-04-28T06:59:50;13.80;99.90
31819;DHT22;18384;48.860;9.188;2023-04-28T07:02:16;13.80;99.90
31819;DHT22;18384;48.860;9.188;2023-04-28T07:04:42;13.90;99.90
31819;DHT22;18384;48.860;9.188;2023-04-28T07:07:08;13.80;99.90
31819;DHT22;18384;48.860;9.188;2023-04-28T07:09:35;13.80;99.90
31819;DHT22;18384;48.860;9.188;2023-04-28T07:12:02;13.80;99.90
31819;DHT22;18384;48.860;9.188;2023-04-28T07:14:28;13.90;99.90
31819;DHT22;18384;48.860;9.188;2023-04-28T07:16:55;13.90;99.90
31819;DHT22;18384;48.860;9.188;2023-04-28T07:19:21;13.90;99.90
31819;DHT22;18384;48.860;9.188;2023-04-28T07:21:47;13.90;99.90
31819;DHT22;18384;48.860;9.188;2023-04-28T07:24:13;13.90;99.90
31819;DHT22;18384;48.860;9.188;2023-04-28T07:26:39;14.00;99.90
31819;DHT22;18384;48.860;9.188;2023-04-28T07:29:05;14.00;99.90
31819;DHT22;18384;48.860;9.188;2023-04-28T07:31:33;14.00;99.90
31819;DHT22;18384;48.860;9.188;2023-04-28T07:34:00;14.00;99.90
31819;DHT22;18384;48.860;9.188;2023-04-28T07:36:26;14.00;99.90
31819;DHT22;18384;48.860;9.188;2023-04-28T07:38:52;14.00;99.90
31819;DHT22;18384;48.860;9.188;2023-04-28T07:41:18;14.00;99.90
31819;DHT22;18384;48.860;9.188;2023-04-28T07:43:44;14.00;99.90
31819;DHT22;18384;48.860;9.188;2023-04-28T07:46:11;14.00;99.90
31819;DHT22;18384;48.860;9.188;2023-04-28T07:48:37;14.00;99.90
31819;DHT22;18384;48.860;9.188;2023-04-28T07:51:03;14.00;99.90
31819;DHT22;18384;48.860;9.188;2023-04-28T07:53:29;14.00;99.90
31819;DHT22;18384;48.860;9.188;2023-04-28T07:55:56;13.90;99.90
31819;DHT22;18384;48.860;9.188;2023-04-28T07:58:22;14.00;99.90
31819;DHT22;18384;48.860;9.188;2023-04-28T08:00:48;14.00;99.90
31819;DHT22;18384;48.860;9.188;2023-04-28T08:03:14;14.00;99.90
31819;DHT22;18384;48.860;9.188;2023-04-28T08:05:41;14.00;99.90
31819;DHT22;18384;48.860;9.188;2023-04-28T08:08:07;14.00;99.90
31819;DHT22;18384;48.860;9.188;2023-04-28T08:10:33;13.90;99.90
31819;DHT22;18384;48.860;9.188;2023-04-28T08:12:59;12.90;99.90
31819;DHT22;18384;48.860;9.188;2023-04-28T08:15:25;13.90;99.90
31819;DHT22;18384;48.860;9.188;2023-04-28T08:17:52;13.90;99.90
31819;DHT22;18384;48.860;9.188;2023-04-28T08:20:18;13.90;99.90
31819;DHT22;18384;48.860;9.188;2023-04-28T08:22:45;13.80;99.90
31819;DHT22;18384;48.860;9.188;2023-04-28T08:25:11;13.80;99.90
31819;DHT22;18384;48.860;9.188;2023-04-28T08:27:37;13.80;99.90
31819;DHT22;18384;48.860;9.188;2023-04-28T08:30:07;13.90;99.90
31819;DHT22;18384;48.860;9.188;2023-04-28T08:32:33;13.90;99.90
31819;DHT22;18384;48.860;9.188;2023-04-28T08:34:59;13.90;99.90
31819;DHT22;18384;48.860;9.188;2023-04-28T08:37:26;13.90;99.90
31819;DHT22;18384;48.860;9.188;2023-04-28T08:39:52;14.00;99.90
31819;DHT22;18384;48.860;9.188;2023-04-28T08:42:28;14.10;99.90
31819;DHT22;18384;48.860;9.188;2023-04-28T08:44:56;14.10;99.90
31819;DHT22;18384;48.860;9.188;2023-04-28T08:47:33;14.20;99.90
31819;DHT22;18384;48.860;9.188;2023-04-28T08:50:05;14.20;99.90
31819;DHT22;18384;48.860;9.188;2023-04-28T08:52:33;14.30;99.90
31819;DHT22;18384;48.860;9.188;2023-04-28T08:55:04;14.40;99.90
31819;DHT22;18384;48.860;9.188;2023-04-28T09:00:20;14.40;99.90
31819;DHT22;18384;48.860;9.188;2023-04-28T09:02:46;14.50;99.90
31819;DHT22;18384;48.860;9.188;2023-04-28T09:05:13;14.60;99.90
31819;DHT22;18384;48.860;9.188;2023-04-28T09:07:40;14.70;99.90
31819;DHT22;18384;48.860;9.188;2023-04-28T09:10:23;14.80;99.90
31819;DHT22;18384;48.860;9.188;2023-04-28T09:12:53;14.90;99.90
31819;DHT22;18384;48.860;9.188;2023-04-28T09:15:31;15.00;99.90
31819;DHT22;18384;48.860;9.188;2023-04-28T09:18:05;15.00;99.90
31819;DHT22;18384;48.860;9.188;2023-04-28T09:20:35;15.10;99.90
31819;DHT22;18384;48.860;9.188;2023-04-28T09:23:20;15.10;99.90
31819;DHT22;18384;48.860;9.188;2023-04-28T09:26:01;15.00;99.90
31819;DHT22;18384;48.860;9.188;2023-04-28T09:28:28;15.10;99.90
31819;DHT22;18384;48.860;9.188;2023-04-28T09:30:55;15.10;99.90
31819;DHT22;18384;48.860;9.188;2023-04-28T09:33:21;15.10;99.90
31819;DHT22;18384;48.860;9.188;2023-04-28T09:35:48;15.20;99.90
31819;DHT22;18384;48.860;9.188;2023-04-28T09:38:15;15.20;99.90
31819;DHT22;18384;48.860;9.188;2023-04-28T09:40:58;15.10;99.90
31819;DHT22;18384;48.860;9.188;2023-04-28T09:43:34;15.20;99.90
31819;DHT22;18384;48.860;9.188;2023-04-28T09:46:02;15.30;99.90
31819;DHT22;18384;48.860;9.188;2023-04-28T09:48:32;15.30;99.90
31819;DHT22;18384;48.860;9.188;2023-04-28T09:51:05;15.40;99.90
31819;DHT22;18384;48.860;9.188;2023-04-28T09:53:33;15.40;99.90
31819;DHT22;18384;48.860;9.188;2023-04-28T09:56:02;15.40;99.90
31819;DHT22;18384;48.860;9.188;2023-04-28T09:58:30;15.60;99.90
31819;DHT22;18384;48.860;9.188;2023-04-28T10:00:59;15.70;99.90
31819;DHT22;18384;48.860;9.188;2023-04-28T10:03:27;15.90;99.90
31819;DHT22;18384;48.860;9.188;2023-04-28T10:05:56;16.10;99.90
31819;DHT22;18384;48.860;9.188;2023-04-28T10:08:23;16.20;99.90
31819;DHT22;18384;48.860;9.188;2023-04-28T10:10:50;16.50;99.90
31819;DHT22;18384;48.860;9.188;2023-04-28T10:13:22;16.60;99.90
31819;DHT22;18384;48.860;9.188;2023-04-28T10:15:52;16.70;99.90
31819;DHT22;18384;48.860;9.188;2023-04-28T10:18:22;16.80;99.90
31819;DHT22;18384;48.860;9.188;2023-04-28T10:20:54;16.80;99.90
31819;DHT22;18384;48.860;9.188;2023-04-28T10:24:13;16.90;99.90
31819;DHT22;18384;48.860;9.188;2023-04-28T10:28:32;16.90;99.90
31819;DHT22;18384;48.860;9.188;2023-04-28T10:31:11;17.10;99.90
31819;DHT22;18384;48.860;9.188;2023-04-28T10:33:39;17.30;99.90
31819;DHT22;18384;48.860;9.188;2023-04-28T10:36:06;17.60;99.90
31819;DHT22;18384;48.860;9.188;2023-04-28T10:38:34;17.90;99.90
31819;DHT22;18384;48.860;9.188;2023-04-28T10:41:01;18.00;99.90
31819;DHT22;18384;48.860;9.188;2023-04-28T10:43:37;18.00;99.90
31819;DHT22;18384;48.860;9.188;2023-04-28T10:46:05;18.10;99.90
31819;DHT22;18384;48.860;9.188;2023-04-28T10:48:51;18.00;99.90
31819;DHT22;18384;48.860;9.188;2023-04-28T10:51:21;18.10;99.90
31819;DHT22;18384;48.860;9.188;2023-04-28T10:54:13;18.10;99.90
31819;DHT22;18384;48.860;9.188;2023-04-28T10:56:41;18.20;99.90
31819;DHT22;18384;48.860;9.188;2023-04-28T10:59:39;18.20;99.90
31819;DHT22;18384;48.860;9.188;2023-04-28T11:02:37;18.10;99.90
31819;DHT22;18384;48.860;9.188;2023-04-28T11:05:11;17.90;99.90
31819;DHT22;18384;48.860;9.188;2023-04-28T11:07:37;17.80;99.90
31819;DHT22;18384;48.860;9.188;2023-04-28T11:10:04;17.70;99.90
31819;DHT22;18384;48.860;9.188;2023-04-28T11:12:31;17.70;99.90
31819;DHT22;18384;48.860;9.188;2023-04-28T11:15:10;17.70;99.90
31819;DHT22;18384;48.860;9.188;2023-04-28T11:17:41;17.60;99.90
31819;DHT22;18384;48.860;9.188;2023-04-28T11:20:11;17.60;99.90
31819;DHT22;18384;48.860;9.188;2023-04-28T11:22:38;17.70;99.90
31819;DHT22;18384;48.860;9.188;2023-04-28T11:25:04;17.60;99.90
31819;DHT22;18384;48.860;9.188;2023-04-28T11:27:32;17.60;99.90
31819;DHT22;18384;48.860;9.188;2023-04-28T11:29:59;17.70;99.90
31819;DHT22;18384;48.860;9.188;2023-04-28T11:32:27;17.80;99.90
31819;DHT22;18384;48.860;9.188;2023-04-28T11:34:54;17.80;99.90
31819;DHT22;18384;48.860;9.188;2023-04-28T11:37:21;17.80;99.90
31819;DHT22;18384;48.860;9.188;2023-04-28T11:39:47;17.80;99.90
31819;DHT22;18384;48.860;9.188;2023-04-28T11:42:14;17.80;99.90
31819;DHT22;18384;48.860;9.188;2023-04-28T11:44:41;17.80;99.90
31819;DHT22;18384;48.860;9.188;2023-04-28T11:47:14;17.80;99.90
31819;DHT22;18384;48.860;9.188;2023-04-28T11:49:44;17.80;99.90
31819;DHT22;18384;48.860;9.188;2023-04-28T11:52:11;17.70;99.90
31819;DHT22;18384;48.860;9.188;2023-04-28T11:54:38;17.60;99.90
31819;DHT22;18384;48.860;9.188;2023-04-28T11:57:19;17.60;99.90
31819;DHT22;18384;48.860;9.188;2023-04-28T11:59:45;17.60;99.90
31819;DHT22;18384;48.860;9.188;2023-04-28T12:02:12;17.60;99.90
31819;DHT22;18384;48.860;9.188;2023-04-28T12:04:39;17.60;99.90
31819;DHT22;18384;48.860;9.188;2023-04-28T12:07:12;17.70;99.90
31819;DHT22;18384;48.860;9.188;2023-04-28T12:09:44;17.60;99.90
31819;DHT22;18384;48.860;9.188;2023-04-28T12:12:29;17.60;99.90
31819;DHT22;18384;48.860;9.188;2023-04-28T12:14:59;17.60;99.90
31819;DHT22;18384;48.860;9.188;2023-04-28T12:17:37;17.50;99.90
31819;DHT22;18384;48.860;9.188;2023-04-28T12:20:09;17.40;99.90
31819;DHT22;18384;48.860;9.188;2023-04-28T12:22:47;17.00;99.90
31819;DHT22;18384;48.860;9.188;2023-04-28T12:25:18;16.80;99.90
31819;DHT22;18384;48.860;9.188;2023-04-28T12:28:00;16.70;99.90
31819;DHT22;18384;48.860;9.188;2023-04-28T12:30:33;16.50;99.90
31819;DHT22;18384;48.860;9.188;2023-04-28T12:33:03;16.40;99.90
31819;DHT22;18384;48.860;9.188;2023-04-28T12:35:29;16.20;99.90
31819;DHT22;18384;48.860;9.188;2023-04-28T12:37:56;16.10;99.90
31819;DHT22;18384;48.860;9.188;2023-04-28T12:40:23;15.90;99.90
31819;DHT22;18384;48.860;9.188;2023-04-28T12:42:49;15.70;99.90
31819;DHT22;18384;48.860;9.188;2023-04-28T12:45:16;15.50;99.90
31819;DHT22;18384;48.860;9.188;2023-04-28T12:47:42;15.30;99.90
31819;DHT22;18384;48.860;9.188;2023-04-28T12:50:08;15.20;99.90
31819;DHT22;18384;48.860;9.188;2023-04-28T12:52:34;15.20;99.90
31819;DHT22;18384;48.860;9.188;2023-04-28T12:55:05;15.10;99.90
31819;DHT22;18384;48.860;9.188;2023-04-28T12:57:31;15.10;99.90
31819;DHT22;18384;48.860;9.188;2023-04-28T12:59:58;15.20;99.90
31819;DHT22;18384;48.860;9.188;2023-04-28T13:02:24;15.30;99.90
31819;DHT22;18384;48.860;9.188;2023-04-28T13:04:50;15.40;99.90
31819;DHT22;18384;48.860;9.188;2023-04-28T13:07:17;15.70;99.90
31819;DHT22;18384;48.860;9.188;2023-04-28T13:09:43;15.80;99.90
31819;DHT22;18384;48.860;9.188;2023-04-28T13:12:10;16.00;99.90
31819;DHT22;18384;48.860;9.188;2023-04-28T13:14:39;16.00;99.90
31819;DHT22;18384;48.860;9.188;2023-04-28T13:17:05;16.00;99.90
31819;DHT22;18384;48.860;9.188;2023-04-28T13:19:31;16.00;99.90
31819;DHT22;18384;48.860;9.188;2023-04-28T13:21:58;16.00;99.90
31819;DHT22;18384;48.860;9.188;2023-04-28T13:24:24;16.00;99.90
31819;DHT22;18384;48.860;9.188;2023-04-28T13:26:51;16.10;99.90
31819;DHT22;18384;48.860;9.188;2023-04-28T13:29:17;16.20;99.90
31819;DHT22;18384;48.860;9.188;2023-04-28T13:31:43;16.40;99.90
31819;DHT22;18384;48.860;9.188;2023-04-28T13:34:09;16.60;99.90
31819;DHT22;18384;48.860;9.188;2023-04-28T13:36:40;16.80;99.90
31819;DHT22;18384;48.860;9.188;2023-04-28T13:39:07;16.90;99.90
31819;DHT22;18384;48.860;9.188;2023-04-28T13:41:36;17.00;99.90
31819;DHT22;18384;48.860;9.188;2023-04-28T13:44:02;17.00;99.90
31819;DHT22;18384;48.860;9.188;2023-04-28T13:46:28;17.00;99.90
31819;DHT22;18384;48.860;9.188;2023-04-28T13:48:54;16.90;99.90
31819;DHT22;18384;48.860;9.188;2023-04-28T13:51:21;16.80;99.90
31819;DHT22;18384;48.860;9.188;2023-04-28T13:53:48;16.80;99.90
31819;DHT22;18384;48.860;9.188;2023-04-28T13:56:14;16.70;99.90
31819;DHT22;18384;48.860;9.188;2023-04-28T13:58:40;16.70;99.90
31819;DHT22;18384;48.860;9.188;2023-04-28T14:01:10;16.80;99.90
31819;DHT22;18384;48.860;9.188;2023-04-28T14:03:36;16.80;99.90
31819;DHT22;18384;48.860;9.188;2023-04-28T14:06:02;16.80;99.90
31819;DHT22;18384;48.860;9.188;2023-04-28T14:08:28;16.90;99.90
31819;DHT22;18384;48.860;9.188;2023-04-28T14:10:55;16.90;99.90
31819;DHT22;18384;48.860;9.188;2023-04-28T14:13:21;17.00;99.90
31819;DHT22;18384;48.860;9.188;2023-04-28T14:15:50;17.10;99.90
31819;DHT22;18384;48.860;9.188;2023-04-28T14:18:18;17.20;99.90
31819;DHT22;18384;48.860;9.188;2023-04-28T14:20:44;17.20;99.90
31819;DHT22;18384;48.860;9.188;2023-04-28T14:23:11;17.20;99.90
31819;DHT22;18384;48.860;9.188;2023-04-28T14:25:37;17.20;99.90
31819;DHT22;18384;48.860;9.188;2023-04-28T14:28:03;17.10;99.90
31819;DHT22;18384;48.860;9.188;2023-04-28T14:30:29;17.10;99.90
31819;DHT22;18384;48.860;9.188;2023-04-28T14:32:55;17.10;99.90
31819;DHT22;18384;48.860;9.188;2023-04-28T14:35:22;17.20;99.90
31819;DHT22;18384;48.860;9.188;2023-04-28T14:37:48;17.20;99.90
31819;DHT22;18384;48.860;9.188;2023-04-28T14:40:14;17.20;99.90
31819;DHT22;18384;48.860;9.188;2023-04-28T14:42:40;17.20;99.90
31819;DHT22;18384;48.860;9.188;2023-04-28T14:45:08;17.20;99.90
31819;DHT22;18384;48.860;9.188;2023-04-28T14:47:36;17.10;99.90
31819;DHT22;18384;48.860;9.188;2023-04-28T14:50:04;17.00;99.90
31819;DHT22;18384;48.860;9.188;2023-04-28T14:52:30;16.90;99.90
31819;DHT22;18384;48.860;9.188;2023-04-28T14:54:58;16.80;99.90
31819;DHT22;18384;48.860;9.188;2023-04-28T14:57:25;16.80;99.90
31819;DHT22;18384;48.860;9.188;2023-04-28T14:59:52;16.80;99.90
31819;DHT22;18384;48.860;9.188;2023-04-28T15:02:19;16.70;99.90
31819;DHT22;18384;48.860;9.188;2023-04-28T15:04:51;16.80;99.90
31819;DHT22;18384;48.860;9.188;2023-04-28T15:07:18;16.80;99.90
31819;DHT22;18384;48.860;9.188;2023-04-28T15:09:45;16.90;99.90
31819;DHT22;18384;48.860;9.188;2023-04-28T15:12:12;16.90;99.90
31819;DHT22;18384;48.860;9.188;2023-04-28T15:14:38;16.90;99.90
31819;DHT22;18384;48.860;9.188;2023-04-28T15:17:04;16.90;99.90
31819;DHT22;18384;48.860;9.188;2023-04-28T15:19:30;16.80;99.90
31819;DHT22;18384;48.860;9.188;2023-04-28T15:21:56;16.80;99.90
31819;DHT22;18384;48.860;9.188;2023-04-28T15:24:23;16.80;99.90
31819;DHT22;18384;48.860;9.188;2023-04-28T15:26:48;16.80;99.90
31819;DHT22;18384;48.860;9.188;2023-04-28T15:29:15;16.80;99.90
31819;DHT22;18384;48.860;9.188;2023-04-28T15:31:41;16.90;99.90
31819;DHT22;18384;48.860;9.188;2023-04-28T15:34:07;17.00;99.90
31819;DHT22;18384;48.860;9.188;2023-04-28T15:36:37;17.10;99.90
31819;DHT22;18384;48.860;9.188;2023-04-28T15:39:04;17.10;99.90